sensor_id;sensor_type;location;lat;lon;timestamp;P1;durP1;ratioP1;P2;durP2;ratioP2
70814;SDS011;58428;49.478;10.986;2022-12-18T00:01:46;86.40;;;33.22;;
70814;SDS011;58428;49.478;10.986;2022-12-18T00:04:21;81.78;;;29.02;;
70814;SDS011;58428;49.478;10.986;2022-12-18T00:06:47;88.97;;;31.52;;
70814;SDS011;58428;49.478;10.986;2022-12-18T00:09:13;81.00;;;29.88;;
70814;SDS011;58428;49.478;10.986;2022-12-18T00:11:39;92.95;;;32.80;;
70814;SDS011;58428;49.478;10.986;2022-12-18T00:14:04;80.53;;;31.02;;
70814;SDS011;58428;49.478;10.986;2022-12-18T00:16:30;85.75;;;32.78;;
70814;SDS011;58428;49.478;10.986;2022-12-18T00:18:58;77.28;;;32.47;;
70814;SDS011;58428;49.478;10.986;2022-12-18T00:21:24;84.60;;;33.90;;
70814;SDS011;58428;49.478;10.986;2022-12-18T00:23:50;82.82;;;32.13;;
70814;SDS011;58428;49.478;10.986;2022-12-18T00:26:19;81.65;;;33.35;;
70814;SDS011;58428;49.478;10.986;2022-12-18T00:28:50;88.13;;;31.23;;
70814;SDS011;58428;49.478;10.986;2022-12-18T00:31:17;80.35;;;31.83;;
70814;SDS011;58428;49.478;10.986;2022-12-18T00:33:46;78.10;;;30.00;;
70814;SDS011;58428;49.478;10.986;2022-12-18T00:36:14;83.57;;;29.73;;
70814;SDS011;58428;49.478;10.986;2022-12-18T00:38:42;93.72;;;32.67;;
70814;SDS011;58428;49.478;10.986;2022-12-18T00:41:09;83.03;;;31.25;;
70814;SDS011;58428;49.478;10.986;2022-12-18T00:43:38;80.40;;;30.25;;
70814;SDS011;58428;49.478;10.986;2022-12-18T00:46:04;69.95;;;29.10;;
70814;SDS011;58428;49.478;10.986;2022-12-18T00:48:30;71.50;;;29.73;;
70814;SDS011;58428;49.478;10.986;2022-12-18T00:50:56;77.93;;;30.70;;
70814;SDS011;58428;49.478;10.986;2022-12-18T00:53:21;69.47;;;28.17;;
70814;SDS011;58428;49.478;10.986;2022-12-18T00:55:47;80.78;;;30.08;;
70814;SDS011;58428;49.478;10.986;2022-12-18T00:58:14;77.95;;;30.13;;
70814;SDS011;58428;49.478;10.986;2022-12-18T01:00:40;82.22;;;31.95;;
70814;SDS011;58428;49.478;10.986;2022-12-18T01:03:06;85.90;;;29.95;;
70814;SDS011;58428;49.478;10.986;2022-12-18T01:05:32;73.00;;;30.40;;
70814;SDS011;58428;49.478;10.986;2022-12-18T01:07:59;75.53;;;28.08;;
70814;SDS011;58428;49.478;10.986;2022-12-18T01:10:24;68.57;;;27.63;;
70814;SDS011;58428;49.478;10.986;2022-12-18T01:12:52;69.03;;;25.65;;
70814;SDS011;58428;49.478;10.986;2022-12-18T01:15:18;70.85;;;26.75;;
70814;SDS011;58428;49.478;10.986;2022-12-18T01:17:45;68.38;;;26.55;;
70814;SDS011;58428;49.478;10.986;2022-12-18T01:20:11;68.35;;;24.17;;
70814;SDS011;58428;49.478;10.986;2022-12-18T01:22:39;65.57;;;25.67;;
70814;SDS011;58428;49.478;10.986;2022-12-18T01:25:08;60.85;;;24.58;;
70814;SDS011;58428;49.478;10.986;2022-12-18T01:27:33;62.55;;;23.70;;
70814;SDS011;58428;49.478;10.986;2022-12-18T01:29:59;54.38;;;22.52;;
70814;SDS011;58428;49.478;10.986;2022-12-18T01:32:25;55.92;;;21.85;;
70814;SDS011;58428;49.478;10.986;2022-12-18T01:34:54;64.78;;;20.20;;
70814;SDS011;58428;49.478;10.986;2022-12-18T01:37:19;54.55;;;18.95;;
70814;SDS011;58428;49.478;10.986;2022-12-18T01:39:44;52.70;;;18.25;;
70814;SDS011;58428;49.478;10.986;2022-12-18T01:42:13;74.43;;;18.80;;
70814;SDS011;58428;49.478;10.986;2022-12-18T01:44:57;58.30;;;21.23;;
70814;SDS011;58428;49.478;10.986;2022-12-18T01:47:30;51.28;;;18.60;;
70814;SDS011;58428;49.478;10.986;2022-12-18T01:50:15;59.25;;;20.10;;
70814;SDS011;58428;49.478;10.986;2022-12-18T01:52:52;54.05;;;18.10;;
70814;SDS011;58428;49.478;10.986;2022-12-18T01:55:26;52.65;;;19.73;;
70814;SDS011;58428;49.478;10.986;2022-12-18T01:57:56;56.30;;;17.25;;
70814;SDS011;58428;49.478;10.986;2022-12-18T02:00:24;55.42;;;19.75;;
70814;SDS011;58428;49.478;10.986;2022-12-18T02:02:51;89.38;;;20.02;;
70814;SDS011;58428;49.478;10.986;2022-12-18T02:05:18;54.28;;;19.55;;
70814;SDS011;58428;49.478;10.986;2022-12-18T02:08:06;52.33;;;18.92;;
70814;SDS011;58428;49.478;10.986;2022-12-18T02:10:39;60.53;;;19.10;;
70814;SDS011;58428;49.478;10.986;2022-12-18T02:13:20;56.85;;;19.20;;
70814;SDS011;58428;49.478;10.986;2022-12-18T02:16:00;53.00;;;18.40;;
70814;SDS011;58428;49.478;10.986;2022-12-18T02:18:47;52.80;;;17.92;;
70814;SDS011;58428;49.478;10.986;2022-12-18T02:27:15;57.78;;;19.25;;
70814;SDS011;58428;49.478;10.986;2022-12-18T02:29:46;52.28;;;18.98;;
70814;SDS011;58428;49.478;10.986;2022-12-18T02:32:16;62.20;;;19.48;;
70814;SDS011;58428;49.478;10.986;2022-12-18T02:34:45;54.05;;;18.42;;
70814;SDS011;58428;49.478;10.986;2022-12-18T02:37:13;52.05;;;17.55;;
70814;SDS011;58428;49.478;10.986;2022-12-18T02:39:42;55.55;;;18.33;;
70814;SDS011;58428;49.478;10.986;2022-12-18T02:42:09;49.70;;;17.70;;
70814;SDS011;58428;49.478;10.986;2022-12-18T02:44:50;50.42;;;18.25;;
70814;SDS011;58428;49.478;10.986;2022-12-18T02:47:17;48.78;;;17.38;;
70814;SDS011;58428;49.478;10.986;2022-12-18T02:52:45;53.40;;;17.48;;
70814;SDS011;58428;49.478;10.986;2022-12-18T02:58:03;49.58;;;17.02;;
70814;SDS011;58428;49.478;10.986;2022-12-18T03:00:44;49.60;;;16.65;;
70814;SDS011;58428;49.478;10.986;2022-12-18T03:03:22;47.65;;;17.35;;
70814;SDS011;58428;49.478;10.986;2022-12-18T03:06:10;50.72;;;18.00;;
70814;SDS011;58428;49.478;10.986;2022-12-18T03:08:41;50.85;;;16.52;;
70814;SDS011;58428;49.478;10.986;2022-12-18T03:11:11;50.80;;;17.17;;
70814;SDS011;58428;49.478;10.986;2022-12-18T03:13:45;53.42;;;17.38;;
70814;SDS011;58428;49.478;10.986;2022-12-18T03:16:17;49.85;;;16.15;;
70814;SDS011;58428;49.478;10.986;2022-12-18T03:18:54;46.38;;;16.90;;
70814;SDS011;58428;49.478;10.986;2022-12-18T03:21:26;50.03;;;17.15;;
70814;SDS011;58428;49.478;10.986;2022-12-18T03:23:54;49.10;;;16.15;;
70814;SDS011;58428;49.478;10.986;2022-12-18T03:26:23;45.40;;;15.55;;
70814;SDS011;58428;49.478;10.986;2022-12-18T03:28:53;45.22;;;15.93;;
70814;SDS011;58428;49.478;10.986;2022-12-18T03:31:25;42.42;;;14.25;;
70814;SDS011;58428;49.478;10.986;2022-12-18T03:33:55;50.35;;;15.73;;
70814;SDS011;58428;49.478;10.986;2022-12-18T03:36:24;43.60;;;14.10;;
70814;SDS011;58428;49.478;10.986;2022-12-18T03:38:50;50.05;;;15.80;;
70814;SDS011;58428;49.478;10.986;2022-12-18T03:41:34;43.03;;;14.85;;
70814;SDS011;58428;49.478;10.986;2022-12-18T03:44:29;42.88;;;14.80;;
70814;SDS011;58428;49.478;10.986;2022-12-18T03:47:14;45.10;;;14.70;;
70814;SDS011;58428;49.478;10.986;2022-12-18T03:50:10;44.50;;;15.32;;
70814;SDS011;58428;49.478;10.986;2022-12-18T03:55:16;45.00;;;13.88;;
70814;SDS011;58428;49.478;10.986;2022-12-18T03:57:47;46.38;;;14.60;;
70814;SDS011;58428;49.478;10.986;2022-12-18T04:02:45;42.00;;;15.13;;
70814;SDS011;58428;49.478;10.986;2022-12-18T04:05:19;46.90;;;15.13;;
70814;SDS011;58428;49.478;10.986;2022-12-18T04:07:48;41.78;;;14.32;;
70814;SDS011;58428;49.478;10.986;2022-12-18T04:10:17;41.17;;;14.52;;
70814;SDS011;58428;49.478;10.986;2022-12-18T04:12:46;43.17;;;14.77;;
70814;SDS011;58428;49.478;10.986;2022-12-18T04:15:11;39.97;;;14.60;;
70814;SDS011;58428;49.478;10.986;2022-12-18T04:17:38;39.80;;;13.98;;
70814;SDS011;58428;49.478;10.986;2022-12-18T04:20:10;42.58;;;13.68;;
70814;SDS011;58428;49.478;10.986;2022-12-18T04:22:36;42.05;;;14.85;;
70814;SDS011;58428;49.478;10.986;2022-12-18T04:25:01;41.63;;;15.05;;
70814;SDS011;58428;49.478;10.986;2022-12-18T04:27:27;38.85;;;14.02;;
70814;SDS011;58428;49.478;10.986;2022-12-18T04:29:53;37.30;;;13.55;;
70814;SDS011;58428;49.478;10.986;2022-12-18T04:32:19;40.08;;;13.60;;
70814;SDS011;58428;49.478;10.986;2022-12-18T04:34:46;37.65;;;14.55;;
70814;SDS011;58428;49.478;10.986;2022-12-18T04:37:11;38.03;;;14.98;;
70814;SDS011;58428;49.478;10.986;2022-12-18T04:39:38;37.33;;;13.00;;
70814;SDS011;58428;49.478;10.986;2022-12-18T04:42:04;33.80;;;12.55;;
70814;SDS011;58428;49.478;10.986;2022-12-18T04:44:29;38.63;;;14.10;;
70814;SDS011;58428;49.478;10.986;2022-12-18T04:46:55;35.70;;;12.52;;
70814;SDS011;58428;49.478;10.986;2022-12-18T04:49:21;35.28;;;14.05;;
70814;SDS011;58428;49.478;10.986;2022-12-18T04:51:48;34.58;;;12.52;;
70814;SDS011;58428;49.478;10.986;2022-12-18T04:54:14;33.58;;;13.45;;
70814;SDS011;58428;49.478;10.986;2022-12-18T04:56:39;32.72;;;12.32;;
70814;SDS011;58428;49.478;10.986;2022-12-18T04:59:05;37.15;;;14.00;;
70814;SDS011;58428;49.478;10.986;2022-12-18T05:01:30;32.55;;;11.95;;
70814;SDS011;58428;49.478;10.986;2022-12-18T05:03:59;31.35;;;12.25;;
70814;SDS011;58428;49.478;10.986;2022-12-18T05:06:25;35.03;;;12.82;;
70814;SDS011;58428;49.478;10.986;2022-12-18T05:08:55;35.53;;;12.10;;
70814;SDS011;58428;49.478;10.986;2022-12-18T05:11:23;35.47;;;12.98;;
70814;SDS011;58428;49.478;10.986;2022-12-18T05:13:49;32.88;;;12.18;;
70814;SDS011;58428;49.478;10.986;2022-12-18T05:16:14;35.97;;;13.00;;
70814;SDS011;58428;49.478;10.986;2022-12-18T05:18:44;33.92;;;11.75;;
70814;SDS011;58428;49.478;10.986;2022-12-18T05:21:13;39.63;;;13.48;;
70814;SDS011;58428;49.478;10.986;2022-12-18T05:23:40;37.05;;;13.35;;
70814;SDS011;58428;49.478;10.986;2022-12-18T05:28:42;30.45;;;11.32;;
70814;SDS011;58428;49.478;10.986;2022-12-18T05:31:09;31.08;;;11.60;;
70814;SDS011;58428;49.478;10.986;2022-12-18T05:33:34;37.90;;;14.02;;
70814;SDS011;58428;49.478;10.986;2022-12-18T05:36:03;34.25;;;11.57;;
70814;SDS011;58428;49.478;10.986;2022-12-18T05:38:31;33.15;;;11.43;;
70814;SDS011;58428;49.478;10.986;2022-12-18T05:40:58;36.08;;;12.65;;
70814;SDS011;58428;49.478;10.986;2022-12-18T05:43:24;37.60;;;13.10;;
70814;SDS011;58428;49.478;10.986;2022-12-18T05:45:51;33.00;;;12.98;;
70814;SDS011;58428;49.478;10.986;2022-12-18T05:48:19;31.83;;;12.65;;
70814;SDS011;58428;49.478;10.986;2022-12-18T05:58:05;34.05;;;11.48;;
70814;SDS011;58428;49.478;10.986;2022-12-18T06:00:33;32.05;;;11.98;;
70814;SDS011;58428;49.478;10.986;2022-12-18T06:03:00;38.90;;;12.90;;
70814;SDS011;58428;49.478;10.986;2022-12-18T06:05:27;36.40;;;12.43;;
70814;SDS011;58428;49.478;10.986;2022-12-18T06:07:53;37.70;;;12.65;;
70814;SDS011;58428;49.478;10.986;2022-12-18T06:10:19;33.35;;;12.70;;
70814;SDS011;58428;49.478;10.986;2022-12-18T06:12:44;34.22;;;12.20;;
70814;SDS011;58428;49.478;10.986;2022-12-18T06:15:10;31.02;;;11.90;;
70814;SDS011;58428;49.478;10.986;2022-12-18T06:17:36;36.90;;;12.70;;
70814;SDS011;58428;49.478;10.986;2022-12-18T06:20:03;31.23;;;11.25;;
70814;SDS011;58428;49.478;10.986;2022-12-18T06:22:33;32.55;;;12.13;;
70814;SDS011;58428;49.478;10.986;2022-12-18T06:24:59;36.00;;;12.10;;
70814;SDS011;58428;49.478;10.986;2022-12-18T06:27:26;32.65;;;13.15;;
70814;SDS011;58428;49.478;10.986;2022-12-18T06:29:53;36.30;;;12.82;;
70814;SDS011;58428;49.478;10.986;2022-12-18T06:32:19;35.25;;;11.40;;
70814;SDS011;58428;49.478;10.986;2022-12-18T06:34:44;35.70;;;12.10;;
70814;SDS011;58428;49.478;10.986;2022-12-18T06:37:10;33.60;;;11.57;;
70814;SDS011;58428;49.478;10.986;2022-12-18T06:39:35;32.28;;;11.27;;
70814;SDS011;58428;49.478;10.986;2022-12-18T06:42:03;34.40;;;11.05;;
70814;SDS011;58428;49.478;10.986;2022-12-18T06:44:28;30.80;;;10.93;;
70814;SDS011;58428;49.478;10.986;2022-12-18T06:46:54;32.85;;;11.77;;
70814;SDS011;58428;49.478;10.986;2022-12-18T06:49:20;36.40;;;12.40;;
70814;SDS011;58428;49.478;10.986;2022-12-18T06:51:46;34.63;;;11.70;;
70814;SDS011;58428;49.478;10.986;2022-12-18T06:54:12;36.80;;;12.90;;
70814;SDS011;58428;49.478;10.986;2022-12-18T06:56:38;40.33;;;13.52;;
70814;SDS011;58428;49.478;10.986;2022-12-18T06:59:03;31.10;;;11.75;;
70814;SDS011;58428;49.478;10.986;2022-12-18T07:01:29;32.67;;;11.50;;
70814;SDS011;58428;49.478;10.986;2022-12-18T07:03:54;37.10;;;12.25;;
70814;SDS011;58428;49.478;10.986;2022-12-18T07:06:23;34.35;;;11.75;;
70814;SDS011;58428;49.478;10.986;2022-12-18T07:08:50;34.85;;;13.07;;
70814;SDS011;58428;49.478;10.986;2022-12-18T07:11:17;30.80;;;11.48;;
70814;SDS011;58428;49.478;10.986;2022-12-18T07:13:43;34.95;;;12.15;;
70814;SDS011;58428;49.478;10.986;2022-12-18T07:18:40;35.20;;;12.70;;
70814;SDS011;58428;49.478;10.986;2022-12-18T07:21:06;33.17;;;11.90;;
70814;SDS011;58428;49.478;10.986;2022-12-18T07:23:34;35.05;;;12.60;;
70814;SDS011;58428;49.478;10.986;2022-12-18T07:26:04;32.92;;;12.15;;
70814;SDS011;58428;49.478;10.986;2022-12-18T07:28:31;33.92;;;13.25;;
70814;SDS011;58428;49.478;10.986;2022-12-18T07:31:02;35.70;;;11.68;;
70814;SDS011;58428;49.478;10.986;2022-12-18T07:33:31;31.60;;;11.32;;
70814;SDS011;58428;49.478;10.986;2022-12-18T07:35:58;30.75;;;11.63;;
70814;SDS011;58428;49.478;10.986;2022-12-18T07:38:25;32.75;;;11.32;;
70814;SDS011;58428;49.478;10.986;2022-12-18T07:41:03;34.58;;;11.75;;
70814;SDS011;58428;49.478;10.986;2022-12-18T07:43:33;38.78;;;11.63;;
70814;SDS011;58428;49.478;10.986;2022-12-18T07:45:59;41.53;;;13.45;;
70814;SDS011;58428;49.478;10.986;2022-12-18T07:48:24;36.90;;;11.20;;
70814;SDS011;58428;49.478;10.986;2022-12-18T07:50:50;36.60;;;11.77;;
70814;SDS011;58428;49.478;10.986;2022-12-18T07:53:15;39.13;;;14.38;;
70814;SDS011;58428;49.478;10.986;2022-12-18T07:55:41;37.92;;;13.30;;
70814;SDS011;58428;49.478;10.986;2022-12-18T07:58:07;35.45;;;12.65;;
70814;SDS011;58428;49.478;10.986;2022-12-18T08:00:34;31.67;;;11.68;;
70814;SDS011;58428;49.478;10.986;2022-12-18T08:03:00;37.28;;;11.73;;
70814;SDS011;58428;49.478;10.986;2022-12-18T08:05:28;32.03;;;11.43;;
70814;SDS011;58428;49.478;10.986;2022-12-18T08:10:19;37.33;;;13.02;;
70814;SDS011;58428;49.478;10.986;2022-12-18T08:12:45;31.58;;;11.27;;
70814;SDS011;58428;49.478;10.986;2022-12-18T08:15:12;29.23;;;10.73;;
70814;SDS011;58428;49.478;10.986;2022-12-18T08:17:58;34.42;;;11.43;;
70814;SDS011;58428;49.478;10.986;2022-12-18T08:20:26;35.50;;;12.38;;
70814;SDS011;58428;49.478;10.986;2022-12-18T08:22:52;33.95;;;13.00;;
70814;SDS011;58428;49.478;10.986;2022-12-18T08:25:18;32.95;;;12.23;;
70814;SDS011;58428;49.478;10.986;2022-12-18T08:27:45;33.95;;;12.13;;
70814;SDS011;58428;49.478;10.986;2022-12-18T08:30:12;33.40;;;11.95;;
70814;SDS011;58428;49.478;10.986;2022-12-18T08:35:03;29.07;;;10.63;;
70814;SDS011;58428;49.478;10.986;2022-12-18T08:37:28;35.85;;;12.18;;
70814;SDS011;58428;49.478;10.986;2022-12-18T08:39:54;35.53;;;12.23;;
70814;SDS011;58428;49.478;10.986;2022-12-18T08:42:19;31.75;;;11.30;;
70814;SDS011;58428;49.478;10.986;2022-12-18T08:45:07;34.25;;;11.65;;
70814;SDS011;58428;49.478;10.986;2022-12-18T08:47:33;30.40;;;10.27;;
70814;SDS011;58428;49.478;10.986;2022-12-18T08:49:58;27.65;;;10.38;;
70814;SDS011;58428;49.478;10.986;2022-12-18T08:52:24;26.45;;;9.63;;
70814;SDS011;58428;49.478;10.986;2022-12-18T08:55:08;24.65;;;9.98;;
70814;SDS011;58428;49.478;10.986;2022-12-18T08:57:35;25.50;;;10.65;;
70814;SDS011;58428;49.478;10.986;2022-12-18T09:00:01;26.27;;;10.32;;
70814;SDS011;58428;49.478;10.986;2022-12-18T09:02:27;26.02;;;9.77;;
70814;SDS011;58428;49.478;10.986;2022-12-18T09:04:53;28.33;;;9.65;;
70814;SDS011;58428;49.478;10.986;2022-12-18T09:07:18;27.15;;;9.75;;
70814;SDS011;58428;49.478;10.986;2022-12-18T09:09:43;26.58;;;10.55;;
70814;SDS011;58428;49.478;10.986;2022-12-18T09:12:09;26.75;;;9.80;;
70814;SDS011;58428;49.478;10.986;2022-12-18T09:14:35;28.10;;;10.15;;
70814;SDS011;58428;49.478;10.986;2022-12-18T09:17:01;27.70;;;10.35;;
70814;SDS011;58428;49.478;10.986;2022-12-18T09:19:26;28.67;;;10.00;;
70814;SDS011;58428;49.478;10.986;2022-12-18T09:21:52;30.48;;;12.00;;
70814;SDS011;58428;49.478;10.986;2022-12-18T09:24:19;24.55;;;10.07;;
70814;SDS011;58428;49.478;10.986;2022-12-18T09:26:44;26.05;;;10.23;;
70814;SDS011;58428;49.478;10.986;2022-12-18T09:29:10;27.05;;;10.27;;
70814;SDS011;58428;49.478;10.986;2022-12-18T09:31:37;26.02;;;10.52;;
70814;SDS011;58428;49.478;10.986;2022-12-18T09:34:06;31.50;;;10.48;;
70814;SDS011;58428;49.478;10.986;2022-12-18T09:36:32;29.60;;;9.48;;
70814;SDS011;58428;49.478;10.986;2022-12-18T09:39:04;26.98;;;10.38;;
70814;SDS011;58428;49.478;10.986;2022-12-18T09:41:41;28.17;;;10.68;;
70814;SDS011;58428;49.478;10.986;2022-12-18T09:44:27;31.20;;;12.90;;
70814;SDS011;58428;49.478;10.986;2022-12-18T09:49:49;25.55;;;10.45;;
70814;SDS011;58428;49.478;10.986;2022-12-18T09:52:34;27.20;;;10.07;;
70814;SDS011;58428;49.478;10.986;2022-12-18T09:58:04;24.05;;;9.27;;
70814;SDS011;58428;49.478;10.986;2022-12-18T10:00:36;26.02;;;10.38;;
70814;SDS011;58428;49.478;10.986;2022-12-18T10:03:03;23.35;;;9.65;;
70814;SDS011;58428;49.478;10.986;2022-12-18T10:05:54;24.95;;;8.88;;
70814;SDS011;58428;49.478;10.986;2022-12-18T10:11:34;22.00;;;8.18;;
70814;SDS011;58428;49.478;10.986;2022-12-18T10:17:26;25.70;;;9.75;;
70814;SDS011;58428;49.478;10.986;2022-12-18T10:25:32;23.67;;;10.45;;
70814;SDS011;58428;49.478;10.986;2022-12-18T10:28:15;24.38;;;9.70;;
70814;SDS011;58428;49.478;10.986;2022-12-18T10:30:45;23.30;;;8.93;;
70814;SDS011;58428;49.478;10.986;2022-12-18T10:33:13;30.10;;;10.70;;
70814;SDS011;58428;49.478;10.986;2022-12-18T10:35:48;25.98;;;9.38;;
70814;SDS011;58428;49.478;10.986;2022-12-18T10:43:43;27.08;;;10.82;;
70814;SDS011;58428;49.478;10.986;2022-12-18T10:51:19;27.60;;;10.82;;
70814;SDS011;58428;49.478;10.986;2022-12-18T10:54:14;27.90;;;10.00;;
70814;SDS011;58428;49.478;10.986;2022-12-18T10:56:43;24.65;;;8.70;;
70814;SDS011;58428;49.478;10.986;2022-12-18T10:59:10;24.63;;;8.80;;
70814;SDS011;58428;49.478;10.986;2022-12-18T11:01:54;28.23;;;10.27;;
70814;SDS011;58428;49.478;10.986;2022-12-18T11:04:23;26.10;;;10.25;;
70814;SDS011;58428;49.478;10.986;2022-12-18T11:09:29;37.00;;;12.90;;
70814;SDS011;58428;49.478;10.986;2022-12-18T11:14:55;29.50;;;12.00;;
70814;SDS011;58428;49.478;10.986;2022-12-18T11:22:39;27.55;;;11.18;;
70814;SDS011;58428;49.478;10.986;2022-12-18T11:25:05;31.23;;;11.93;;
70814;SDS011;58428;49.478;10.986;2022-12-18T11:27:58;30.58;;;11.35;;
70814;SDS011;58428;49.478;10.986;2022-12-18T11:30:34;29.42;;;11.40;;
70814;SDS011;58428;49.478;10.986;2022-12-18T11:35:42;26.10;;;10.65;;
70814;SDS011;58428;49.478;10.986;2022-12-18T11:38:19;25.55;;;9.93;;
70814;SDS011;58428;49.478;10.986;2022-12-18T11:41:05;32.08;;;11.52;;
70814;SDS011;58428;49.478;10.986;2022-12-18T11:44:24;27.10;;;10.60;;
70814;SDS011;58428;49.478;10.986;2022-12-18T11:50:16;26.50;;;10.77;;
70814;SDS011;58428;49.478;10.986;2022-12-18T11:52:47;27.02;;;10.95;;
70814;SDS011;58428;49.478;10.986;2022-12-18T12:00:24;29.63;;;11.20;;
70814;SDS011;58428;49.478;10.986;2022-12-18T12:23:59;26.75;;;10.63;;
70814;SDS011;58428;49.478;10.986;2022-12-18T12:35:09;27.35;;;10.48;;
70814;SDS011;58428;49.478;10.986;2022-12-18T12:40:44;30.48;;;10.85;;
70814;SDS011;58428;49.478;10.986;2022-12-18T12:46:03;27.35;;;10.23;;
70814;SDS011;58428;49.478;10.986;2022-12-18T12:53:43;30.25;;;10.77;;
70814;SDS011;58428;49.478;10.986;2022-12-18T12:56:11;33.78;;;11.88;;
70814;SDS011;58428;49.478;10.986;2022-12-18T12:58:44;57.88;;;21.23;;
70814;SDS011;58428;49.478;10.986;2022-12-18T13:04:00;36.67;;;13.18;;
70814;SDS011;58428;49.478;10.986;2022-12-18T13:06:45;26.38;;;10.68;;
70814;SDS011;58428;49.478;10.986;2022-12-18T13:09:18;28.27;;;10.32;;
70814;SDS011;58428;49.478;10.986;2022-12-18T13:11:44;28.40;;;10.50;;
70814;SDS011;58428;49.478;10.986;2022-12-18T13:14:34;29.77;;;11.13;;
70814;SDS011;58428;49.478;10.986;2022-12-18T13:20:27;26.27;;;10.80;;
70814;SDS011;58428;49.478;10.986;2022-12-18T13:22:48;31.55;;;11.82;;
70814;SDS011;58428;49.478;10.986;2022-12-18T13:30:41;31.25;;;11.38;;
70814;SDS011;58428;49.478;10.986;2022-12-18T13:48:56;27.70;;;10.65;;
70814;SDS011;58428;49.478;10.986;2022-12-18T13:51:22;24.67;;;9.57;;
70814;SDS011;58428;49.478;10.986;2022-12-18T13:53:50;27.02;;;10.63;;
70814;SDS011;58428;49.478;10.986;2022-12-18T13:56:22;26.73;;;10.23;;
70814;SDS011;58428;49.478;10.986;2022-12-18T14:02:00;24.65;;;9.23;;
70814;SDS011;58428;49.478;10.986;2022-12-18T14:04:32;26.25;;;10.00;;
70814;SDS011;58428;49.478;10.986;2022-12-18T14:07:03;25.23;;;10.40;;
70814;SDS011;58428;49.478;10.986;2022-12-18T14:09:33;28.10;;;10.63;;
70814;SDS011;58428;49.478;10.986;2022-12-18T14:12:01;26.77;;;10.63;;
70814;SDS011;58428;49.478;10.986;2022-12-18T14:14:49;33.85;;;12.30;;
70814;SDS011;58428;49.478;10.986;2022-12-18T14:17:19;28.67;;;10.23;;
70814;SDS011;58428;49.478;10.986;2022-12-18T14:19:45;26.25;;;11.30;;
70814;SDS011;58428;49.478;10.986;2022-12-18T14:22:14;27.02;;;11.38;;
70814;SDS011;58428;49.478;10.986;2022-12-18T14:25:05;27.67;;;11.50;;
70814;SDS011;58428;49.478;10.986;2022-12-18T14:33:03;28.02;;;10.75;;
70814;SDS011;58428;49.478;10.986;2022-12-18T14:35:35;34.05;;;11.13;;
70814;SDS011;58428;49.478;10.986;2022-12-18T14:38:24;29.73;;;11.23;;
70814;SDS011;58428;49.478;10.986;2022-12-18T14:40:53;26.65;;;10.68;;
70814;SDS011;58428;49.478;10.986;2022-12-18T14:43:19;28.83;;;10.43;;
70814;SDS011;58428;49.478;10.986;2022-12-18T14:45:47;26.60;;;10.75;;
70814;SDS011;58428;49.478;10.986;2022-12-18T14:50:43;26.90;;;11.07;;
70814;SDS011;58428;49.478;10.986;2022-12-18T14:53:20;26.92;;;10.25;;
70814;SDS011;58428;49.478;10.986;2022-12-18T14:55:48;28.33;;;10.52;;
70814;SDS011;58428;49.478;10.986;2022-12-18T14:58:15;28.02;;;10.75;;
70814;SDS011;58428;49.478;10.986;2022-12-18T15:00:42;27.95;;;10.85;;
70814;SDS011;58428;49.478;10.986;2022-12-18T15:03:08;26.55;;;11.07;;
70814;SDS011;58428;49.478;10.986;2022-12-18T15:05:34;26.10;;;9.93;;
70814;SDS011;58428;49.478;10.986;2022-12-18T15:08:02;29.45;;;10.93;;
70814;SDS011;58428;49.478;10.986;2022-12-18T15:10:31;29.35;;;10.70;;
70814;SDS011;58428;49.478;10.986;2022-12-18T15:20:55;27.65;;;11.13;;
70814;SDS011;58428;49.478;10.986;2022-12-18T15:25:55;29.38;;;10.93;;
70814;SDS011;58428;49.478;10.986;2022-12-18T15:28:33;26.25;;;10.90;;
70814;SDS011;58428;49.478;10.986;2022-12-18T15:31:03;25.52;;;10.68;;
70814;SDS011;58428;49.478;10.986;2022-12-18T15:33:32;29.58;;;11.23;;
70814;SDS011;58428;49.478;10.986;2022-12-18T15:36:00;28.55;;;11.07;;
70814;SDS011;58428;49.478;10.986;2022-12-18T15:38:28;32.05;;;11.48;;
70814;SDS011;58428;49.478;10.986;2022-12-18T15:40:53;28.95;;;11.40;;
70814;SDS011;58428;49.478;10.986;2022-12-18T15:43:22;27.15;;;12.07;;
70814;SDS011;58428;49.478;10.986;2022-12-18T15:46:02;29.98;;;10.57;;
70814;SDS011;58428;49.478;10.986;2022-12-18T15:48:31;26.45;;;10.07;;
70814;SDS011;58428;49.478;10.986;2022-12-18T15:50:58;27.80;;;10.50;;
70814;SDS011;58428;49.478;10.986;2022-12-18T15:53:24;30.20;;;10.35;;
70814;SDS011;58428;49.478;10.986;2022-12-18T15:55:53;26.15;;;10.63;;
70814;SDS011;58428;49.478;10.986;2022-12-18T15:58:37;30.08;;;11.20;;
70814;SDS011;58428;49.478;10.986;2022-12-18T16:01:02;31.55;;;10.90;;
70814;SDS011;58428;49.478;10.986;2022-12-18T16:03:29;32.33;;;12.05;;
70814;SDS011;58428;49.478;10.986;2022-12-18T16:05:55;32.13;;;11.50;;
70814;SDS011;58428;49.478;10.986;2022-12-18T16:08:20;31.35;;;11.98;;
70814;SDS011;58428;49.478;10.986;2022-12-18T16:10:46;27.77;;;11.20;;
70814;SDS011;58428;49.478;10.986;2022-12-18T16:13:12;31.35;;;11.52;;
70814;SDS011;58428;49.478;10.986;2022-12-18T16:15:42;31.08;;;12.00;;
70814;SDS011;58428;49.478;10.986;2022-12-18T16:18:08;31.67;;;12.55;;
70814;SDS011;58428;49.478;10.986;2022-12-18T16:20:33;31.33;;;11.57;;
70814;SDS011;58428;49.478;10.986;2022-12-18T16:22:59;31.17;;;12.27;;
70814;SDS011;58428;49.478;10.986;2022-12-18T16:25:27;34.65;;;12.55;;
70814;SDS011;58428;49.478;10.986;2022-12-18T16:27:54;30.50;;;11.43;;
70814;SDS011;58428;49.478;10.986;2022-12-18T16:30:22;26.38;;;11.48;;
70814;SDS011;58428;49.478;10.986;2022-12-18T16:32:52;31.15;;;12.00;;
70814;SDS011;58428;49.478;10.986;2022-12-18T16:35:19;28.90;;;10.95;;
70814;SDS011;58428;49.478;10.986;2022-12-18T16:37:45;30.60;;;11.18;;
70814;SDS011;58428;49.478;10.986;2022-12-18T16:40:12;28.63;;;10.65;;
70814;SDS011;58428;49.478;10.986;2022-12-18T16:42:41;30.80;;;12.40;;
70814;SDS011;58428;49.478;10.986;2022-12-18T16:45:08;36.42;;;13.55;;
70814;SDS011;58428;49.478;10.986;2022-12-18T16:47:39;33.35;;;12.48;;
70814;SDS011;58428;49.478;10.986;2022-12-18T16:50:05;32.70;;;12.75;;
70814;SDS011;58428;49.478;10.986;2022-12-18T16:52:32;35.05;;;13.25;;
70814;SDS011;58428;49.478;10.986;2022-12-18T16:54:58;30.83;;;12.60;;
70814;SDS011;58428;49.478;10.986;2022-12-18T16:57:23;29.38;;;12.02;;
70814;SDS011;58428;49.478;10.986;2022-12-18T16:59:50;31.88;;;12.25;;
70814;SDS011;58428;49.478;10.986;2022-12-18T17:02:18;33.60;;;12.90;;
70814;SDS011;58428;49.478;10.986;2022-12-18T17:04:45;27.63;;;11.02;;
70814;SDS011;58428;49.478;10.986;2022-12-18T17:07:11;31.33;;;13.40;;
70814;SDS011;58428;49.478;10.986;2022-12-18T17:09:38;34.53;;;12.90;;
70814;SDS011;58428;49.478;10.986;2022-12-18T17:12:05;35.47;;;12.77;;
70814;SDS011;58428;49.478;10.986;2022-12-18T17:14:31;33.28;;;12.48;;
70814;SDS011;58428;49.478;10.986;2022-12-18T17:16:57;36.78;;;14.55;;